Time;durP1;ratioP1;P1;durP2;ratioP2;P2;SDS_P1;SDS_P2;PMS_P1;PMS_P2;Temp;Humidity;BMP_temperature;BMP_pressure;BME280_temperature;BME280_humidity;BME280_pressure;Samples;Min_cycle;Max_cycle;Signal;HPM_P1;HPM_P2
2021/09/25 00:01:29;;;;;;;39.88;17.80;;;;;;;10.45;100.00;100015.37;1622077;88;21177;-89
2021/09/25 00:03:58;;;;;;;35.25;16.40;;;;;;;10.39;100.00;100014.31;1622317;88;21088;-90
2021/09/25 00:06:23;;;;;;;37.67;17.25;;;;;;;10.33;100.00;100014.86;1622030;87;21066;-91
2021/09/25 00:08:49;;;;;;;38.42;17.45;;;;;;;10.29;100.00;100007.58;1622006;88;21149;-89
2021/09/25 00:11:15;;;;;;;38.45;16.02;;;;;;;10.22;100.00;100002.45;1635481;86;21654;-89
2021/09/25 00:13:41;;;;;;;42.62;18.30;;;;;;;10.14;100.00;100002.45;1693787;84;21925;-90
2021/09/25 00:16:09;;;;;;;35.95;16.87;;;;;;;10.05;100.00;100001.94;1703277;84;21003;-94
2021/09/25 00:18:35;;;;;;;48.28;18.23;;;;;;;9.93;100.00;100000.32;1703180;83;21040;-90
2021/09/25 00:21:03;;;;;;;41.53;18.70;;;;;;;9.92;100.00;100010.83;1703227;83;21056;-92
2021/09/25 00:23:30;;;;;;;49.60;18.65;;;;;;;9.88;100.00;100009.77;1703293;83;21075;-89
2021/09/25 00:25:56;;;;;;;48.68;18.40;;;;;;;9.84;100.00;100010.02;1703467;84;21085;-89
2021/09/25 00:28:22;;;;;;;44.88;18.62;;;;;;;9.80;100.00;100017.02;1703352;84;20905;-89
2021/09/25 00:30:48;;;;;;;44.13;18.10;;;;;;;9.76;100.00;100026.18;1703203;84;21005;-88
2021/09/25 00:33:14;;;;;;;46.08;18.92;;;;;;;9.75;100.00;100027.23;1703436;84;20948;-88
2021/09/25 00:35:40;;;;;;;40.55;16.85;;;;;;;9.72;100.00;100029.66;1703535;84;20897;-89
2021/09/25 00:38:06;;;;;;;47.85;18.65;;;;;;;9.69;100.00;100033.69;1703429;84;21181;-88
2021/09/25 00:40:32;;;;;;;40.67;18.17;;;;;;;9.66;100.00;100028.05;1703367;84;21058;-89
2021/09/25 00:42:58;;;;;;;45.33;18.48;;;;;;;9.62;100.00;100022.91;1703432;83;20984;-88
2021/09/25 00:45:26;;;;;;;44.10;17.70;;;;;;;9.59;100.00;100024.28;1701889;84;20904;-88
2021/09/25 00:47:52;;;;;;;42.33;17.37;;;;;;;9.58;100.00;100028.56;1708311;83;20996;-89
2021/09/25 00:50:19;;;;;;;42.58;17.37;;;;;;;9.54;100.00;100029.09;1705415;84;21196;-89
2021/09/25 00:52:46;;;;;;;39.90;17.02;;;;;;;9.51;100.00;100030.98;1690169;84;21060;-90
2021/09/25 00:55:13;;;;;;;34.33;16.73;;;;;;;9.48;100.00;100026.13;1708442;83;21067;-88
2021/09/25 00:57:41;;;;;;;34.88;16.02;;;;;;;9.47;100.00;100023.69;1708295;83;21011;-89
2021/09/25 01:00:09;;;;;;;39.58;16.77;;;;;;;9.44;100.00;100034.98;1708628;83;21793;-90
2021/09/25 01:02:35;;;;;;;35.92;15.65;;;;;;;9.41;100.00;100026.10;1708482;83;21152;-90
2021/09/25 01:05:04;;;;;;;37.03;16.00;;;;;;;9.39;100.00;100034.45;1708447;84;21020;-91
2021/09/25 01:07:30;;;;;;;34.38;15.32;;;;;;;9.35;100.00;100033.34;1708487;84;20996;-89
2021/09/25 01:09:56;;;;;;;39.70;16.42;;;;;;;9.30;100.00;100042.23;1708498;83;21064;-89
2021/09/25 01:12:22;;;;;;;40.70;16.12;;;;;;;9.27;100.00;100036.58;1708321;83;21657;-91
2021/09/25 01:14:48;;;;;;;36.70;15.48;;;;;;;9.24;100.00;100041.95;1708483;84;21190;-90
2021/09/25 01:17:14;;;;;;;37.00;16.07;;;;;;;9.22;100.00;100045.97;1708465;84;20888;-89
2021/09/25 01:19:42;;;;;;;38.45;15.90;;;;;;;9.16;100.00;100049.71;1708472;83;21028;-89
2021/09/25 01:22:10;;;;;;;31.70;14.28;;;;;;;9.11;100.00;100049.14;1708138;83;20996;-87
2021/09/25 01:24:36;;;;;;;33.63;14.40;;;;;;;9.08;100.00;100053.70;1708426;84;21535;-90
2021/09/25 01:27:04;;;;;;;33.63;14.33;;;;;;;9.04;100.00;100060.69;1708320;84;21471;-89
2021/09/25 01:29:30;;;;;;;34.15;14.60;;;;;;;9.00;100.00;100057.72;1708473;83;21520;-89
2021/09/25 01:31:57;;;;;;;32.65;13.80;;;;;;;8.95;100.00;100060.38;1708530;84;21058;-89
2021/09/25 01:34:23;;;;;;;33.98;14.03;;;;;;;8.93;100.00;100061.71;1708539;84;20961;-89
2021/09/25 01:36:50;;;;;;;40.03;13.78;;;;;;;8.91;100.00;100072.70;1708492;83;20996;-90
2021/09/25 01:39:16;;;;;;;29.75;13.62;;;;;;;8.84;100.00;100077.52;1708320;84;21048;-91
2021/09/25 01:41:42;;;;;;;36.85;13.32;;;;;;;8.77;100.00;100076.95;1705068;84;21063;-88
2021/09/25 01:44:08;;;;;;;33.25;13.43;;;;;;;8.74;100.00;100081.51;1708419;84;21483;-89
2021/09/25 01:46:34;;;;;;;32.28;13.98;;;;;;;8.70;100.00;100089.25;1705787;83;20877;-89
2021/09/25 01:49:00;;;;;;;31.57;14.13;;;;;;;8.68;100.00;100090.06;1703146;84;20865;-90
2021/09/25 01:51:26;;;;;;;47.83;17.07;;;;;;;8.63;100.00;100092.17;1703113;84;21895;-89
2021/09/25 01:53:53;;;;;;;40.23;16.15;;;;;;;8.62;100.00;100099.16;1703221;83;21035;-90
2021/09/25 01:56:19;;;;;;;41.35;16.67;;;;;;;8.60;100.00;100095.38;1703086;84;21056;-90
2021/09/25 01:58:44;;;;;;;45.83;15.70;;;;;;;8.57;100.00;100095.90;1703045;84;20956;-90
2021/09/25 02:01:12;;;;;;;43.45;16.65;;;;;;;8.55;100.00;100095.34;1703016;83;20953;-90
2021/09/25 02:03:43;;;;;;;41.25;16.67;;;;;;;8.53;100.00;100098.84;1695778;83;21110;-89
2021/09/25 02:06:11;;;;;;;36.73;15.08;;;;;;;8.55;100.00;100105.28;1702120;83;21008;-86
2021/09/25 02:08:40;;;;;;;39.15;14.78;;;;;;;8.55;100.00;100107.97;1702962;84;21075;-89
2021/09/25 02:11:07;;;;;;;35.35;15.00;;;;;;;8.53;100.00;100112.77;1703071;84;21517;-90
2021/09/25 02:13:34;;;;;;;35.25;15.08;;;;;;;8.49;100.00;100109.80;1699593;84;21568;-90
2021/09/25 02:16:00;;;;;;;35.10;13.60;;;;;;;8.43;100.00;100109.48;1702999;84;21755;-90
2021/09/25 02:18:27;;;;;;;36.03;14.10;;;;;;;8.41;100.00;100114.30;1703013;83;20984;-91
2021/09/25 02:20:54;;;;;;;30.80;12.20;;;;;;;8.36;100.00;100116.94;1703059;84;21012;-90
2021/09/25 02:23:21;;;;;;;33.63;13.98;;;;;;;8.33;100.00;100118.80;1702951;84;21013;-90
2021/09/25 02:25:47;;;;;;;31.70;13.68;;;;;;;8.28;100.00;100118.75;1703071;84;21079;-90
2021/09/25 02:28:13;;;;;;;33.42;14.95;;;;;;;8.22;100.00;100125.14;1702919;83;21676;-89
2021/09/25 02:30:39;;;;;;;31.12;12.28;;;;;;;8.20;100.00;100130.21;1703051;84;21001;-90
2021/09/25 02:33:05;;;;;;;36.60;13.50;;;;;;;8.18;100.00;100132.36;1703106;83;21015;-89
2021/09/25 02:35:32;;;;;;;33.90;13.98;;;;;;;8.15;100.00;100136.09;1703267;84;20889;-94
2021/09/25 02:37:57;;;;;;;30.82;12.73;;;;;;;8.12;100.00;100137.95;1703000;84;21063;-89
2021/09/25 02:40:24;;;;;;;37.00;13.50;;;;;;;8.06;100.00;100149.16;1703163;84;21949;-90
2021/09/25 02:42:51;;;;;;;43.80;14.78;;;;;;;8.01;100.00;100149.64;1702932;84;20976;-89
2021/09/25 02:45:23;;;;;;;31.90;13.20;;;;;;;7.94;100.00;100157.88;1703173;83;21461;-92
2021/09/25 02:47:49;;;;;;;32.63;13.83;;;;;;;7.90;100.00;100157.58;1702861;84;20991;-92
2021/09/25 02:50:16;;;;;;;30.12;12.80;;;;;;;7.83;100.00;100156.98;1703203;84;21622;-92
2021/09/25 02:53:01;;;;;;;35.85;14.43;;;;;;;7.79;100.00;100159.86;1703119;83;22045;-92
2021/09/25 02:55:27;;;;;;;27.37;12.82;;;;;;;7.76;100.00;100160.37;1703030;84;21040;-90
2021/09/25 02:57:53;;;;;;;32.63;13.72;;;;;;;7.70;100.00;100166.20;1703320;84;21638;-91
2021/09/25 03:00:23;;;;;;;34.67;14.13;;;;;;;7.67;100.00;100168.58;1703199;84;20865;-92
2021/09/25 03:02:50;;;;;;;47.95;16.70;;;;;;;7.62;100.00;100163.99;1702982;83;21077;-92
2021/09/25 03:05:16;;;;;;;39.98;16.00;;;;;;;7.55;100.00;100168.72;1703204;84;21161;-91
2021/09/25 03:11:36;;;;;;;42.75;16.73;;;;;;;7.55;100.00;100174.61;1702904;84;21009;-92
2021/09/25 03:14:01;;;;;;;36.53;16.05;;;;;;;7.53;100.00;100174.05;1703273;83;21068;-93
2021/09/25 03:16:27;;;;;;;38.33;14.50;;;;;;;7.51;100.00;100171.63;1703143;83;20969;-94
2021/09/25 03:22:36;;;;;;;51.23;19.92;;;;;;;7.49;100.00;100187.14;1702270;84;21056;-92
2021/09/25 03:25:07;;;;;;;42.73;17.27;;;;;;;7.46;100.00;100187.64;1703127;84;21016;-92
2021/09/25 03:27:31;;;;;;;42.98;17.45;;;;;;;7.50;100.00;100197.63;1699685;84;21043;-92
2021/09/25 03:29:57;;;;;;;48.05;20.15;;;;;;;7.55;100.00;100199.55;1702765;84;20869;-93
2021/09/25 03:32:22;;;;;;;48.23;18.35;;;;;;;7.60;100.00;100194.26;1683119;84;21805;-92
2021/09/25 03:34:54;;;;;;;47.93;20.25;;;;;;;7.70;100.00;100198.92;1703287;83;20881;-92
2021/09/25 03:37:20;;;;;;;45.20;18.77;;;;;;;7.77;100.00;100199.56;1703307;84;20996;-92
2021/09/25 03:39:46;;;;;;;52.27;19.70;;;;;;;7.83;100.00;100200.44;1703246;84;20881;-92
2021/09/25 03:42:14;;;;;;;50.08;19.95;;;;;;;7.89;100.00;100203.45;1703096;84;20886;-89
2021/09/25 03:44:40;;;;;;;43.73;19.42;;;;;;;7.96;100.00;100199.48;1703174;84;21155;-92
2021/09/25 03:47:06;;;;;;;51.58;18.92;;;;;;;8.01;100.00;100198.75;1703031;83;20967;-92
2021/09/25 03:49:33;;;;;;;45.05;18.98;;;;;;;8.09;100.00;100213.06;1703204;84;21638;-92
2021/09/25 03:51:59;;;;;;;51.33;19.32;;;;;;;8.17;100.00;100215.27;1703095;84;21059;-92
2021/09/25 03:54:25;;;;;;;49.30;18.20;;;;;;;8.26;100.00;100222.33;1703100;84;20861;-92
2021/09/25 03:56:53;;;;;;;40.38;17.82;;;;;;;8.34;100.00;100223.77;1703153;83;21139;-93
2021/09/25 03:59:18;;;;;;;40.67;17.37;;;;;;;8.47;100.00;100231.95;1703276;83;21492;-92
2021/09/25 04:01:44;;;;;;;41.73;18.40;;;;;;;8.58;100.00;100218.91;1703303;83;20904;-93
2021/09/25 04:04:12;;;;;;;47.53;17.77;;;;;;;8.58;100.00;100218.91;1703644;84;20889;-93
2021/09/25 04:06:38;;;;;;;38.78;16.27;;;;;;;8.83;100.00;100246.52;1703261;84;21037;-93
2021/09/25 04:11:33;;;;;;;42.25;17.05;;;;;;;9.07;100.00;100242.39;1682776;84;21015;-92
2021/09/25 04:13:59;;;;;;;39.20;16.67;;;;;;;9.19;100.00;100251.62;1683536;85;21027;-93
2021/09/25 04:16:27;;;;;;;41.42;16.85;;;;;;;9.31;100.00;100256.80;1683710;85;21550;-92
2021/09/25 04:18:54;;;;;;;42.38;16.05;;;;;;;9.40;100.00;100259.27;1683693;85;21068;-92
2021/09/25 04:21:20;;;;;;;37.30;14.50;;;;;;;9.49;100.00;100268.47;1683597;85;21506;-92
2021/09/25 04:23:54;;;;;;;36.08;14.83;;;;;;;9.60;100.00;100267.19;1660486;85;21012;-92
2021/09/25 04:26:20;;;;;;;36.68;15.05;;;;;;;9.71;100.00;100265.63;1683479;85;21011;-92
2021/09/25 06:41:08;;;;;;;13.60;5.62;;;;;;;14.82;100.00;100430.78;1694708;79;21027;-96
2021/09/25 06:43:35;;;;;;;15.05;5.22;;;;;;;14.81;100.00;100431.89;1665223;85;21006;-94
2021/09/25 06:46:01;;;;;;;15.78;5.03;;;;;;;14.77;100.00;100422.17;1650592;86;21161;-95
2021/09/25 06:48:27;;;;;;;13.98;6.47;;;;;;;14.97;100.00;100448.20;1650975;87;21070;-93
2021/09/25 06:51:16;;;;;;;14.40;5.70;;;;;;;14.97;100.00;100449.03;1650918;86;20916;-95
2021/09/25 06:53:42;;;;;;;13.35;5.83;;;;;;;14.98;100.00;100459.33;1651060;86;21588;-91
2021/09/25 06:56:08;;;;;;;13.38;5.55;;;;;;;15.02;100.00;100455.48;1649851;87;21074;-96
2021/09/25 07:28:43;;;;;;;11.12;6.08;;;;;;;14.48;100.00;100490.03;1671487;85;21043;-95
2021/09/25 07:31:09;;;;;;;17.70;6.40;;;;;;;14.34;100.00;100485.83;1664622;85;20979;-96
2021/09/25 07:33:39;;;;;;;14.38;7.30;;;;;;;14.18;100.00;100487.91;1664000;86;21213;-96
2021/09/25 07:36:38;;;;;;;19.65;7.00;;;;;;;14.19;100.00;100493.58;1664439;85;21043;-96
2021/09/25 07:39:04;;;;;;;12.90;6.85;;;;;;;14.26;100.00;100501.36;1665491;86;20968;-94
2021/09/25 07:41:29;;;;;;;14.87;6.85;;;;;;;14.17;100.00;100499.82;1678463;83;21051;-94
2021/09/25 07:48:09;;;;;;;15.83;6.60;;;;;;;14.03;100.00;100506.47;1684811;84;20937;-95
2021/09/25 07:50:35;;;;;;;15.43;7.42;;;;;;;14.04;100.00;100506.73;1691695;83;21622;-96
2021/09/25 07:53:02;;;;;;;10.40;6.25;;;;;;;14.20;100.00;100512.80;1692576;83;20991;-95
2021/09/25 08:07:04;;;;;;;7.45;4.83;;;;;;;14.80;100.00;100502.98;1696563;83;20996;-94
2021/09/25 09:04:52;;;;;;;5.40;2.98;;;;;;;22.88;100.00;100511.30;1775558;80;22827;-90
2021/09/25 09:07:29;;;;;;;7.78;2.85;;;;;;;23.08;100.00;100514.51;1785962;80;21043;-90
2021/09/25 09:09:58;;;;;;;3.27;2.10;;;;;;;22.78;100.00;100521.39;1786205;80;21155;-90
2021/09/25 09:12:28;;;;;;;4.97;2.37;;;;;;;22.49;100.00;100525.95;1786293;80;21578;-90
2021/09/25 09:14:56;;;;;;;6.15;2.58;;;;;;;22.13;100.00;100528.84;1786330;80;21027;-90
2021/09/25 09:17:26;;;;;;;9.93;2.60;;;;;;;21.53;100.00;100541.17;1786382;80;21058;-90
2021/09/25 09:19:54;;;;;;;3.27;2.00;;;;;;;20.96;100.00;100551.30;1724001;83;21096;-90
2021/09/25 09:22:23;;;;;;;3.98;1.90;;;;;;;20.33;100.00;100554.59;1723816;83;21131;-92
2021/09/25 09:24:54;;;;;;;3.37;1.65;;;;;;;19.73;100.00;100563.68;1724010;82;20988;-92
2021/09/25 09:27:27;;;;;;;3.27;1.90;;;;;;;19.14;100.00;100568.73;1724231;83;21593;-92
2021/09/25 09:30:12;;;;;;;2.17;1.80;;;;;;;18.86;100.00;100567.62;1724259;83;21499;-91
2021/09/25 09:32:48;;;;;;;3.12;1.80;;;;;;;18.49;100.00;100577.06;1699584;83;21046;-90
2021/09/25 09:35:18;;;;;;;2.62;1.80;;;;;;;18.09;100.00;100579.17;1669173;85;22345;-92
2021/09/25 09:37:55;;;;;;;7.58;1.67;;;;;;;17.89;100.00;100580.46;1674793;85;21554;-90
2021/09/25 09:40:21;;;;;;;4.65;1.70;;;;;;;17.88;100.00;100582.12;1678236;85;21481;-88
2021/09/25 09:42:49;;;;;;;2.90;1.20;;;;;;;18.28;100.00;100584.41;1678399;85;21019;-92
2021/09/25 09:45:28;;;;;;;4.22;1.30;;;;;;;18.44;100.00;100581.28;1661535;86;21096;-93
2021/09/25 09:47:57;;;;;;;1.47;1.10;;;;;;;18.30;100.00;100587.64;1661671;86;21771;-91
2021/09/25 09:50:23;;;;;;;1.37;1.20;;;;;;;18.03;100.00;100595.41;1661599;86;21005;-91
2021/09/25 09:52:49;;;;;;;1.30;1.20;;;;;;;17.86;100.00;100598.80;1661619;86;20973;-90
2021/09/25 09:59:05;;;;;;;1.60;1.40;;;;;;;17.65;100.00;100603.89;1661517;86;21041;-88
2021/09/25 10:01:33;;;;;;;2.95;1.35;;;;;;;17.24;100.00;100606.13;1660638;86;21305;-85
2021/09/25 10:04:00;;;;;;;2.10;1.30;;;;;;;16.93;100.00;100603.76;1644284;85;21014;-89
2021/09/25 10:06:28;;;;;;;3.65;1.40;;;;;;;16.66;100.00;100616.20;1641792;87;21156;-87
2021/09/25 10:08:55;;;;;;;2.08;1.35;;;;;;;16.46;100.00;100610.56;1641796;87;21644;-87
2021/09/25 10:11:23;;;;;;;3.45;1.72;;;;;;;16.36;100.00;100614.83;1641782;87;21928;-87
2021/09/25 10:13:51;;;;;;;4.45;1.42;;;;;;;16.38;100.00;100610.44;1650123;87;21119;-88
2021/09/25 10:16:18;;;;;;;2.35;1.30;;;;;;;16.38;100.00;100613.16;1649886;87;21614;-88
2021/09/25 10:18:44;;;;;;;1.70;1.30;;;;;;;16.44;100.00;100615.52;1659888;86;21092;-88
2021/09/25 10:21:13;;;;;;;3.00;1.50;;;;;;;16.54;100.00;100616.69;1650196;87;21034;-88
2021/09/25 10:23:59;;;;;;;7.72;1.22;;;;;;;16.63;100.00;100616.80;1650362;87;21018;-89
2021/09/25 10:26:26;;;;;;;1.40;0.90;;;;;;;16.77;100.00;100618.22;1609932;89;21116;-90
2021/09/25 10:29:02;;;;;;;1.35;1.02;;;;;;;16.79;100.00;100622.80;1609841;89;21105;-88
2021/09/25 10:31:28;;;;;;;1.50;1.07;;;;;;;16.89;100.00;100620.45;1592166;89;21027;-87
2021/09/25 10:34:13;;;;;;;3.75;1.02;;;;;;;16.99;100.00;100618.88;1610073;89;21697;-88
2021/09/25 10:36:58;;;;;;;3.60;1.20;;;;;;;17.11;100.00;100619.18;1587712;90;21005;-87
2021/09/25 10:39:36;;;;;;;3.45;1.10;;;;;;;17.31;100.00;100621.25;1588279;90;21136;-87
2021/09/25 10:42:11;;;;;;;2.30;1.10;;;;;;;17.53;100.00;100619.14;1557853;92;21573;-87
2021/09/25 10:44:44;;;;;;;2.12;1.15;;;;;;;17.79;100.00;100611.23;1587729;90;21061;-88
2021/09/25 10:47:16;;;;;;;2.25;1.25;;;;;;;18.04;100.00;100622.92;1588262;90;21526;-89
2021/09/25 10:49:47;;;;;;;1.30;1.20;;;;;;;18.19;100.00;100610.03;1545955;92;21149;-89
2021/09/25 10:52:17;;;;;;;3.42;1.30;;;;;;;18.37;100.00;100613.11;1559371;92;21844;-94
2021/09/25 10:54:45;;;;;;;2.62;1.20;;;;;;;18.67;100.00;100609.34;1559240;92;21073;-93
2021/09/25 10:57:18;;;;;;;6.30;1.27;;;;;;;18.94;100.00;100612.45;1559854;87;21667;-91
2021/09/25 11:00:22;;;;;;;5.33;1.12;;;;;;;19.00;100.00;100619.38;1559255;92;21124;-90
2021/09/25 11:02:49;;;;;;;3.58;1.10;;;;;;;18.86;100.00;100612.69;1534274;87;21121;-90
2021/09/25 11:05:17;;;;;;;1.67;1.20;;;;;;;18.89;100.00;100609.89;1558887;92;21858;-91
2021/09/25 11:08:00;;;;;;;1.15;1.02;;;;;;;18.77;100.00;100610.48;1558856;92;20996;-90
2021/09/25 11:10:40;;;;;;;1.05;0.93;;;;;;;18.73;100.00;100610.81;1563583;90;21231;-92
2021/09/25 11:13:06;;;;;;;1.77;1.20;;;;;;;18.68;100.00;100611.77;1533674;93;21106;-90
2021/09/25 11:15:36;;;;;;;2.15;1.22;;;;;;;18.57;100.00;100613.16;1515463;93;20926;-92
2021/09/25 11:18:26;;;;;;;3.83;1.22;;;;;;;18.51;100.00;100609.75;1515047;94;21159;-90
2021/09/25 11:20:56;;;;;;;2.15;1.10;;;;;;;18.36;100.00;100614.24;1515049;94;21257;-91
2021/09/25 11:23:22;;;;;;;1.95;1.07;;;;;;;18.30;100.00;100615.48;1468535;97;21128;-92
2021/09/25 11:25:51;;;;;;;2.02;1.32;;;;;;;18.28;100.00;100621.80;1468349;97;21517;-91
2021/09/25 11:28:23;;;;;;;3.87;1.30;;;;;;;18.25;100.00;100623.23;1467537;97;21657;-93
2021/09/25 11:30:48;;;;;;;1.17;0.95;;;;;;;18.51;100.00;100627.48;1466530;97;21100;-92
2021/09/25 11:33:14;;;;;;;1.42;0.98;;;;;;;18.75;100.00;100631.25;1466417;94;20950;-92
2021/09/25 11:35:40;;;;;;;1.32;1.07;;;;;;;18.66;100.00;100633.67;1498207;95;20965;-95
2021/09/25 11:38:11;;;;;;;1.30;1.00;;;;;;;18.27;100.00;100638.73;1495229;96;20909;-91
2021/09/25 11:40:46;;;;;;;1.35;1.00;;;;;;;17.89;100.00;100647.82;1509166;94;21245;-92
2021/09/25 11:43:21;;;;;;;1.47;1.07;;;;;;;17.58;100.00;100632.09;1515741;94;21092;-88
2021/09/25 11:45:51;;;;;;;2.40;1.10;;;;;;;17.75;100.00;100636.91;1519198;93;21085;-88
2021/09/25 11:48:21;;;;;;;1.57;1.32;;;;;;;17.98;100.00;100641.88;1576374;91;21057;-89
2021/09/25 11:50:55;;;;;;;1.85;1.30;;;;;;;18.19;100.00;100645.48;1527962;94;21601;-88
2021/09/25 11:53:23;;;;;;;3.72;1.62;;;;;;;18.35;100.00;100645.34;1527834;94;20988;-90
2021/09/25 11:55:51;;;;;;;1.55;1.00;;;;;;;18.40;100.00;100643.87;1528032;94;22009;-91
2021/09/25 11:58:21;;;;;;;2.08;1.07;;;;;;;18.24;100.00;100652.20;1527762;94;21067;-91
2021/09/25 12:00:59;;;;;;;2.05;1.10;;;;;;;18.18;100.00;100661.59;1531616;93;21652;-91
2021/09/25 12:03:29;;;;;;;1.70;1.20;;;;;;;18.20;100.00;100658.00;1569508;91;21114;-90
2021/09/25 12:05:59;;;;;;;1.55;1.12;;;;;;;18.26;100.00;100662.22;1567504;91;21107;-88
2021/09/25 12:08:28;;;;;;;5.53;1.15;;;;;;;18.29;100.00;100660.23;1592772;86;21204;-92
2021/09/25 12:11:04;;;;;;;3.10;1.15;;;;;;;18.26;100.00;100661.66;1552567;92;21133;-93
2021/09/25 12:13:41;;;;;;;1.80;1.10;;;;;;;18.15;100.00;100667.13;1527736;94;21070;-94
2021/09/25 12:16:10;;;;;;;3.83;1.47;;;;;;;17.92;100.00;100663.56;1509469;95;21084;-88
2021/09/25 12:18:39;;;;;;;3.50;1.40;;;;;;;17.79;100.00;100666.55;1527935;94;20999;-93
2021/09/25 12:21:15;;;;;;;3.08;1.05;;;;;;;17.76;100.00;100662.25;1509839;95;22021;-91
2021/09/25 12:23:52;;;;;;;0.90;0.90;;;;;;;17.86;100.00;100664.23;1527894;94;21047;-92
2021/09/25 12:26:55;;;;;;;1.90;1.20;;;;;;;18.16;100.00;100663.28;1443884;99;21077;-91
2021/09/25 12:29:21;;;;;;;3.27;1.37;;;;;;;18.41;100.00;100664.57;1443776;99;21485;-91
2021/09/25 12:32:00;;;;;;;2.15;1.37;;;;;;;18.51;100.00;100676.61;1443898;99;21172;-91
2021/09/25 12:34:26;;;;;;;3.05;1.10;;;;;;;18.51;100.00;100676.61;1443886;99;21286;-91
2021/09/25 12:36:57;;;;;;;1.85;1.37;;;;;;;18.40;100.00;100669.80;1443803;99;21007;-89
2021/09/25 12:39:29;;;;;;;2.12;1.42;;;;;;;18.34;100.00;100683.31;1443662;99;21524;-92
2021/09/25 12:42:02;;;;;;;4.92;1.40;;;;;;;18.23;100.00;100686.83;1443690;98;21076;-90
2021/09/25 12:44:34;;;;;;;3.70;1.40;;;;;;;18.02;100.00;100681.61;1444124;99;21057;-90
2021/09/25 12:47:00;;;;;;;2.40;1.47;;;;;;;17.95;100.00;100687.48;1463919;93;21507;-90
2021/09/25 12:49:36;;;;;;;3.17;1.17;;;;;;;17.90;100.00;100687.59;1567287;91;21072;-92
2021/09/25 12:52:17;;;;;;;4.25;1.20;;;;;;;17.97;100.00;100698.08;1567519;91;21630;-90
2021/09/25 12:54:46;;;;;;;2.98;1.40;;;;;;;18.04;100.00;100702.00;1587433;89;21133;-91
2021/09/25 12:57:23;;;;;;;1.40;1.20;;;;;;;18.04;100.00;100692.46;1587742;90;21122;-93
2021/09/25 12:59:59;;;;;;;1.12;0.78;;;;;;;18.10;100.00;100693.95;1561903;91;21212;-89
2021/09/25 13:02:29;;;;;;;1.00;0.85;;;;;;;18.08;100.00;100696.17;1584730;90;21108;-91
2021/09/25 13:05:00;;;;;;;1.37;0.80;;;;;;;18.01;100.00;100700.45;1584881;90;21060;-88
2021/09/25 13:07:41;;;;;;;1.05;0.60;;;;;;;18.04;100.00;100702.56;1601774;87;21069;-92
2021/09/25 13:10:17;;;;;;;1.20;0.80;;;;;;;18.13;100.00;100706.17;1635125;87;21082;-92
2021/09/25 13:13:19;;;;;;;2.02;1.00;;;;;;;18.22;100.00;100701.59;1615557;88;21186;-92
2021/09/25 13:15:46;;;;;;;1.77;1.12;;;;;;;18.37;100.00;100711.34;1614827;88;21092;-89
2021/09/25 13:18:12;;;;;;;1.67;1.00;;;;;;;18.42;100.00;100704.41;1615333;88;21081;-92
2021/09/25 13:20:39;;;;;;;1.95;1.20;;;;;;;18.41;100.00;100712.89;1615573;88;21097;-92
2021/09/25 13:23:09;;;;;;;5.35;1.52;;;;;;;18.44;100.00;100710.34;1615338;88;21083;-91
2021/09/25 13:25:35;;;;;;;2.08;1.25;;;;;;;18.30;100.00;100719.16;1614623;88;21358;-89
2021/09/25 13:28:05;;;;;;;4.17;1.20;;;;;;;18.28;100.00;100722.19;1615573;88;21037;-91
2021/09/25 13:30:30;;;;;;;1.85;1.15;;;;;;;18.30;100.00;100728.15;1615285;88;21049;-91
2021/09/25 13:32:56;;;;;;;9.30;1.60;;;;;;;18.17;100.00;100735.80;1615729;88;20910;-93
2021/09/25 13:35:22;;;;;;;3.87;1.67;;;;;;;18.13;100.00;100734.25;1615706;88;21060;-91
2021/09/25 13:37:48;;;;;;;1.52;1.12;;;;;;;18.11;100.00;100737.84;1615643;88;21841;-91
2021/09/25 13:40:15;;;;;;;2.30;1.22;;;;;;;18.09;100.00;100738.72;1602916;88;21006;-90
2021/09/25 13:42:42;;;;;;;4.65;1.30;;;;;;;18.05;100.00;100741.79;1615603;87;21245;-88
2021/09/25 13:45:10;;;;;;;5.55;1.22;;;;;;;17.81;100.00;100738.51;1615789;88;21058;-90
2021/09/25 13:47:36;;;;;;;2.08;1.32;;;;;;;17.58;100.00;100750.64;1615546;88;21057;-91
2021/09/25 13:50:05;;;;;;;5.87;1.30;;;;;;;17.45;100.00;100758.27;1669420;86;21133;-94
2021/09/25 13:52:31;;;;;;;4.22;1.45;;;;;;;17.41;100.00;100768.14;1672543;85;21197;-96
2021/09/25 13:56:07;;;;;;;4.42;1.67;;;;;;;17.30;100.00;100773.55;1672829;84;21674;-96
2021/09/25 13:58:32;;;;;;;2.15;1.50;;;;;;;17.17;100.00;100772.40;1669656;86;21567;-93
2021/09/25 14:00:59;;;;;;;3.52;1.75;;;;;;;16.93;100.00;100776.06;1656683;85;21015;-95
2021/09/25 14:03:25;;;;;;;4.60;2.15;;;;;;;16.78;100.00;100779.84;1642767;82;21183;-96
2021/09/25 14:05:57;;;;;;;3.98;2.27;;;;;;;16.66;100.00;100784.91;1724063;83;21416;-96
2021/09/25 14:08:23;;;;;;;3.83;2.35;;;;;;;16.55;100.00;100778.00;1688824;83;21007;-95
2021/09/25 14:10:49;;;;;;;5.37;2.27;;;;;;;16.55;100.00;100786.17;1710365;83;21485;-93
2021/09/25 14:13:15;;;;;;;4.78;2.45;;;;;;;16.49;100.00;100787.35;1711774;82;21035;-94
2021/09/25 14:15:41;;;;;;;5.80;2.30;;;;;;;16.33;100.00;100799.02;1711723;83;21100;-95
2021/09/25 14:18:09;;;;;;;6.65;2.47;;;;;;;16.20;100.00;100795.64;1712318;82;21115;-94
2021/09/25 14:20:41;;;;;;;3.90;2.45;;;;;;;16.07;100.00;100793.91;1711546;83;21056;-94
2021/09/25 14:23:05;;;;;;;6.40;2.30;;;;;;;16.02;100.00;100798.04;1710851;83;21048;-94
2021/09/25 14:25:31;;;;;;;5.95;2.20;;;;;;;15.96;100.00;100795.68;1687906;83;20903;-93
2021/09/25 14:27:56;;;;;;;6.10;2.85;;;;;;;15.92;100.00;100800.90;1687946;83;21991;-93
2021/09/25 14:30:23;;;;;;;5.30;3.00;;;;;;;15.89;100.00;100815.88;1711292;83;20885;-94
2021/09/25 14:32:49;;;;;;;5.25;2.90;;;;;;;15.89;100.00;100817.78;1711899;83;21089;-95
2021/09/25 14:35:16;;;;;;;4.80;2.50;;;;;;;15.80;100.00;100821.69;1711994;83;20960;-95
2021/09/25 14:37:41;;;;;;;4.30;2.47;;;;;;;15.71;100.00;100826.70;1711798;83;21001;-94
2021/09/25 14:40:10;;;;;;;5.15;2.72;;;;;;;15.63;100.00;100828.89;1737010;81;22011;-94
2021/09/25 14:42:38;;;;;;;7.17;2.87;;;;;;;15.59;100.00;100833.30;1740050;80;21091;-94
2021/09/25 14:45:05;;;;;;;4.75;2.80;;;;;;;15.51;100.00;100842.62;1735942;82;21614;-91
2021/09/25 14:47:32;;;;;;;7.47;3.27;;;;;;;15.47;100.00;100840.20;1736039;82;21044;-94
2021/09/25 14:49:57;;;;;;;5.78;3.08;;;;;;;15.41;100.00;100848.94;1736170;82;20889;-93
2021/09/25 14:52:26;;;;;;;5.90;3.37;;;;;;;15.32;100.00;100845.22;1736308;82;21174;-92
2021/09/25 14:54:51;;;;;;;6.87;3.67;;;;;;;15.26;100.00;100849.88;1735954;82;21027;-94
2021/09/25 14:57:18;;;;;;;7.20;3.83;;;;;;;15.15;100.00;100838.88;1736365;82;20924;-94
2021/09/25 14:59:46;;;;;;;7.58;4.00;;;;;;;15.17;100.00;100861.90;1736469;82;21027;-93
2021/09/25 15:02:11;;;;;;;10.23;4.62;;;;;;;15.11;100.00;100859.52;1736009;82;21027;-94
2021/09/25 15:04:38;;;;;;;9.78;3.95;;;;;;;15.03;100.00;100864.19;1733250;81;21090;-92
2021/09/25 15:07:04;;;;;;;7.85;3.83;;;;;;;14.77;100.00;100844.03;1728638;83;21008;-95
2021/09/25 15:09:32;;;;;;;7.10;4.30;;;;;;;14.77;100.00;100844.03;1728802;83;21028;-94
2021/09/25 15:11:59;;;;;;;9.30;4.62;;;;;;;14.71;100.00;100849.23;1728627;82;21563;-94
2021/09/25 15:14:25;;;;;;;16.40;4.60;;;;;;;14.71;100.00;100849.23;1728598;83;21039;-93
2021/09/25 15:16:51;;;;;;;9.08;4.60;;;;;;;14.73;100.00;100864.11;1728459;82;21197;-92
2021/09/25 15:19:17;;;;;;;9.95;4.80;;;;;;;14.68;100.00;100876.92;1728663;83;21626;-96
2021/09/25 15:21:43;;;;;;;9.98;5.17;;;;;;;14.60;100.00;100885.64;1728855;82;21125;-94
2021/09/25 15:24:09;;;;;;;11.48;5.47;;;;;;;14.50;100.00;100887.80;1728504;83;20948;-95
2021/09/25 15:26:35;;;;;;;9.75;5.30;;;;;;;14.46;100.00;100897.05;1728394;82;20905;-94
2021/09/25 15:29:02;;;;;;;11.08;5.25;;;;;;;14.41;100.00;100899.80;1728752;83;21116;-94
2021/09/25 15:31:28;;;;;;;12.88;5.97;;;;;;;14.34;100.00;100904.70;1728642;82;21016;-94